Airfield :
LOGIN :

Register | Disclaimer

   EN    FR    IT 

 










Legend :    VFR   Marginal VFR   IFR   Intensive IFR   Very Intensive IFR
Visi :
Ceiling :
>= 8 km
>= 3000ft
5 to 8 km
1000 to 3000 ft
1500m to 5 km
500 to 1000 ft
800 to 1500m
200 to 500 ft
< 800m
< 200 ft
Symbols :   Thunderstorms  Fog  Heavy snow  Heavy precipitations  Wind > 20 kt
SIGMETs :     Misc.  Thunderstorms  Icing  Turbulence  Mountain Waves  Volcanic Ashes






- Airport Elevation : 162 ft
- IATA code : BOD


LFBD - Bordeaux / Merignac

CURRENT METAR :
  • 261930Z AUTO 10007KT CAVOK 12/10 Q1015 NOSIG

EXPIRED METARs :
  • 261900Z AUTO 12007KT CAVOK 12/10 Q1015 NOSIG
  • 261830Z AUTO 07002KT CAVOK 10/09 Q1015 NOSIG
  • 261800Z AUTO 00000KT CAVOK 11/09 Q1015 NOSIG

TAF TAF LFBD
Valid from the 26 at 18:00 until the 28 at 00:00 UTC


261700Z 2618/2724 10008KT CAVOK TX16/2714Z TN07/2706Z
BECMG 2702/2704 MIFG
PROB30 2704/2709 4000 BKN008
BECMG 2707/2709 NSW
ATIS : +33 5 57 92 81 04



MET'MAP, your aeronautical weather chart ! - Copyright ORBIFLY December 2007 - Disclaimer

ORBIFLY MET'MAP TEAM :

Programming & Development : Alexandra Zaïnal
Concept & original design : Baudouin d'Aumeries
Assistance for programming : Marc-Olivier Méhu
Technical & hardware support : Manuel Goepfert

Contact : metmap@orbifly.com




SOURCES & CREDITS :

   NOAA